Deer Lodge (38S)
Deer Lodge, MT
Field Elevation: 4692
Lat: 49°23.27N  Long: 112°45.89W
CTAF/Unicom Freq: 120.0250
   
     For Weather-by-Phone, call 406-846-1177
Weather Advisories
2019-09-17   02:33 Z
Altimeter 29.72" Hg
Wind 300° @ 15 KT
Gusts 21 KT
Visibility 10 SM
Temperature 19° C (66° F)
Dewpoint 2° C (36° F)
Relative Humidity 31%
Density Altitude 6,500 feet
Condensation Altitude 13,300 feet
Wind and Runways
Indicated Runway = 30
Headwind = 15 kt
Crosswind = 0 kt
History
 
 
 
More Info
NOAA Forecast
 
 
About Us
Belfort Instrument
 
 
FAA Disclaimer: The data displayed is for advisory purposes only and is not to be used for flight planning or operations. For official data, please call 406-846-1177 to hear the current automated AWOS voice message.
  METAR 38S 170233Z AUTO 30015G21KT 10 SM 19/02 A2972